createdAt,value
2018-12-05T00:02:25.107Z,-1.00
2018-12-05T00:04:52.686Z,-0.90
2018-12-05T00:07:20.225Z,-0.90
2018-12-05T00:09:47.843Z,-0.90
2018-12-05T00:12:15.506Z,-1.00
2018-12-05T00:14:43.187Z,-1.00
2018-12-05T00:17:10.727Z,-1.00
2018-12-05T00:19:38.431Z,-1.00
2018-12-05T00:22:06.103Z,-1.00
2018-12-05T00:24:33.650Z,-1.10
2018-12-05T00:27:01.186Z,-1.10
2018-12-05T00:29:28.786Z,-1.10
2018-12-05T00:31:56.390Z,-1.10
2018-12-05T00:34:24.058Z,-1.10
2018-12-05T00:36:51.649Z,-1.10
2018-12-05T00:39:19.275Z,-1.10
2018-12-05T00:41:46.810Z,-1.10
2018-12-05T00:44:14.441Z,-1.20
2018-12-05T00:46:42.026Z,-1.20
2018-12-05T00:49:09.613Z,-1.20
2018-12-05T00:51:37.154Z,-1.20
2018-12-05T00:54:04.823Z,-1.20
2018-12-05T00:56:32.417Z,-1.20
2018-12-05T00:59:00.015Z,-1.20
2018-12-05T01:01:27.641Z,-1.10
2018-12-05T01:03:55.234Z,-1.20
2018-12-05T01:06:22.770Z,-1.10
2018-12-05T01:08:50.388Z,-1.10
2018-12-05T01:11:17.962Z,-1.00
2018-12-05T01:13:45.518Z,-1.00
2018-12-05T01:16:13.180Z,-1.10
2018-12-05T01:18:40.739Z,-1.00
2018-12-05T01:21:08.283Z,-0.90
2018-12-05T01:23:35.882Z,-1.00
2018-12-05T01:26:03.462Z,-1.00
2018-12-05T01:28:31.090Z,-1.00
2018-12-05T01:30:58.666Z,-0.90
2018-12-05T01:33:26.250Z,-0.90
2018-12-05T01:35:53.802Z,-0.90
2018-12-05T01:38:21.359Z,-0.90
2018-12-05T01:40:48.927Z,-0.90
2018-12-05T01:43:16.500Z,-0.90
2018-12-05T01:45:44.063Z,-0.90
2018-12-05T01:48:11.638Z,-0.90
2018-12-05T01:50:39.310Z,-0.90
2018-12-05T01:53:06.846Z,-0.90
2018-12-05T01:55:34.466Z,-0.90
2018-12-05T01:58:02.030Z,-0.80
2018-12-05T02:00:29.626Z,-0.90
2018-12-05T02:02:57.162Z,-0.80
2018-12-05T02:05:24.745Z,-0.80
2018-12-05T02:07:52.434Z,-0.80
2018-12-05T02:10:20.102Z,-0.80
2018-12-05T02:12:47.679Z,-0.80
2018-12-05T02:15:15.238Z,-0.90
2018-12-05T02:17:42.919Z,-0.80
2018-12-05T02:20:10.514Z,-0.90
2018-12-05T02:22:38.066Z,-0.90
2018-12-05T02:25:05.807Z,-1.00
2018-12-05T02:27:33.345Z,-1.00
2018-12-05T02:30:00.906Z,-1.00
2018-12-05T02:32:28.485Z,-0.90
2018-12-05T02:34:56.079Z,-1.00
2018-12-05T02:37:23.616Z,-1.00
2018-12-05T02:39:51.276Z,-1.10
2018-12-05T02:42:18.917Z,-1.10
2018-12-05T02:44:46.473Z,-1.10
2018-12-05T02:47:14.094Z,-1.20
2018-12-05T02:49:41.690Z,-1.20
2018-12-05T02:52:09.331Z,-1.30
2018-12-05T02:54:36.925Z,-1.30
2018-12-05T02:57:04.495Z,-1.20
2018-12-05T02:59:32.076Z,-1.20
2018-12-05T03:01:59.657Z,-1.30
2018-12-05T03:04:27.254Z,-1.30
2018-12-05T03:06:54.874Z,-1.20
2018-12-05T03:09:22.446Z,-1.20
2018-12-05T03:11:49.978Z,-1.10
2018-12-05T03:14:17.604Z,-1.20
2018-12-05T03:16:45.158Z,-1.20
2018-12-05T03:19:12.694Z,-1.10
2018-12-05T03:21:40.313Z,-1.20
2018-12-05T03:24:07.894Z,-1.20
2018-12-05T03:26:35.455Z,-1.20
2018-12-05T03:29:02.995Z,-1.20
2018-12-05T03:31:30.567Z,-1.30
2018-12-05T03:33:58.180Z,-1.30
2018-12-05T03:36:25.736Z,-1.40
2018-12-05T03:38:53.266Z,-1.40
2018-12-05T03:41:20.899Z,-1.40
2018-12-05T03:43:48.443Z,-1.40
2018-12-05T03:46:16.003Z,-1.50
2018-12-05T03:48:43.606Z,-1.50
2018-12-05T03:51:11.187Z,-1.50
2018-12-05T03:53:38.727Z,-1.60
2018-12-05T03:56:06.322Z,-1.50
2018-12-05T03:58:34.124Z,-1.60
2018-12-05T04:01:01.743Z,-1.50
2018-12-05T04:03:29.281Z,-1.60
2018-12-05T04:05:56.892Z,-1.60
2018-12-05T04:08:24.438Z,-1.60
2018-12-05T04:10:51.990Z,-1.60
2018-12-05T04:13:19.539Z,-1.60
2018-12-05T04:15:47.091Z,-1.60
2018-12-05T04:18:14.684Z,-1.60
2018-12-05T04:20:42.363Z,-1.70
2018-12-05T04:23:09.936Z,-1.70
2018-12-05T04:25:37.516Z,-1.80
2018-12-05T04:28:05.085Z,-1.80
2018-12-05T04:30:32.742Z,-1.80
2018-12-05T04:33:00.279Z,-1.80
2018-12-05T04:35:27.835Z,-1.80
2018-12-05T04:37:55.371Z,-1.80
2018-12-05T04:40:23.006Z,-1.90
2018-12-05T04:42:50.551Z,-1.90
2018-12-05T04:45:18.119Z,-1.90
2018-12-05T04:47:45.656Z,-1.90
2018-12-05T04:50:13.246Z,-1.90
2018-12-05T04:52:40.789Z,-1.90
2018-12-05T04:55:08.412Z,-2.00
2018-12-05T04:57:35.950Z,-2.00
2018-12-05T05:00:04.695Z,-2.10
2018-12-05T05:02:32.258Z,-2.10
2018-12-05T05:04:59.894Z,-2.10
2018-12-05T05:07:27.453Z,-2.10
2018-12-05T05:09:55.030Z,-2.10
2018-12-05T05:12:22.602Z,-2.10
2018-12-05T05:14:50.139Z,-2.20
2018-12-05T05:17:17.690Z,-2.20
2018-12-05T05:19:45.238Z,-2.20
2018-12-05T05:22:12.890Z,-2.30
2018-12-05T05:24:40.421Z,-2.30
2018-12-05T05:27:07.972Z,-2.30
2018-12-05T05:29:35.551Z,-2.30
2018-12-05T05:32:03.106Z,-2.40
2018-12-05T05:34:30.645Z,-2.40
2018-12-05T05:36:58.199Z,-2.40
2018-12-05T05:39:25.738Z,-2.50
2018-12-05T05:41:53.340Z,-2.60
2018-12-05T05:44:20.883Z,-2.70
2018-12-05T05:46:48.433Z,-2.60
2018-12-05T05:49:16.006Z,-2.60
2018-12-05T05:51:43.567Z,-2.60
2018-12-05T05:54:11.114Z,-2.50
2018-12-05T05:56:38.667Z,-2.50
2018-12-05T05:59:06.196Z,-2.50
2018-12-05T06:01:33.855Z,-2.50
2018-12-05T06:04:01.421Z,-2.50
2018-12-05T06:06:28.995Z,-2.50
2018-12-05T06:08:56.574Z,-2.50
2018-12-05T06:11:24.131Z,-2.50
2018-12-05T06:13:51.706Z,-2.50
2018-12-05T06:16:19.266Z,-2.60
2018-12-05T06:18:46.819Z,-2.60
2018-12-05T06:21:14.373Z,-2.60
2018-12-05T06:23:42.003Z,-2.60
2018-12-05T06:26:09.597Z,-2.70
2018-12-05T06:28:37.130Z,-2.70
2018-12-05T06:31:04.769Z,-2.80
2018-12-05T06:33:32.394Z,-2.80
2018-12-05T06:35:59.970Z,-2.80
2018-12-05T06:38:27.498Z,-2.70
2018-12-05T06:40:55.094Z,-2.60
2018-12-05T06:43:22.649Z,-2.70
2018-12-05T06:45:50.182Z,-2.70
2018-12-05T06:48:17.730Z,-2.70
2018-12-05T06:50:45.263Z,-2.70
2018-12-05T06:53:12.815Z,-2.70
2018-12-05T06:55:40.353Z,-2.70
2018-12-05T06:58:07.916Z,-2.60
2018-12-05T07:00:35.446Z,-2.70
2018-12-05T07:03:02.999Z,-2.60
2018-12-05T07:05:30.625Z,-2.60
2018-12-05T07:07:58.180Z,-2.60
2018-12-05T07:10:25.705Z,-2.50
2018-12-05T07:12:53.287Z,-2.50
2018-12-05T07:15:20.818Z,-2.50
2018-12-05T07:17:48.414Z,-2.50
2018-12-05T07:20:15.985Z,-2.60
2018-12-05T07:22:43.539Z,-2.60
2018-12-05T07:25:11.074Z,-2.60
2018-12-05T07:27:38.621Z,-2.50
2018-12-05T07:30:06.385Z,-2.50
2018-12-05T07:32:34.031Z,-2.60
2018-12-05T07:35:01.566Z,-2.50
2018-12-05T07:37:29.123Z,-2.40
2018-12-05T07:39:56.663Z,-2.40
2018-12-05T07:42:24.210Z,-2.40
2018-12-05T07:44:51.790Z,-2.40
2018-12-05T07:47:19.367Z,-2.30
2018-12-05T07:49:46.935Z,-2.30
2018-12-05T07:52:14.537Z,-2.20
2018-12-05T07:54:42.113Z,-2.20
2018-12-05T07:57:09.657Z,-2.10
2018-12-05T07:59:37.202Z,-2.00
2018-12-05T08:02:04.790Z,-2.00
2018-12-05T08:04:32.318Z,-1.90
2018-12-05T08:06:59.878Z,-1.70
2018-12-05T08:09:27.510Z,-1.60
2018-12-05T08:11:55.063Z,-1.50
2018-12-05T08:14:22.594Z,-1.30
2018-12-05T08:16:50.232Z,-1.20
2018-12-05T08:19:17.811Z,-1.20
2018-12-05T08:21:45.349Z,-1.20
2018-12-05T08:24:13.050Z,-1.20
2018-12-05T08:26:40.633Z,-1.20
2018-12-05T08:29:08.187Z,-1.20
2018-12-05T08:31:35.859Z,-1.30
2018-12-05T08:34:03.464Z,-1.30
2018-12-05T08:36:31.020Z,-1.30
2018-12-05T08:38:58.577Z,-1.30
2018-12-05T08:41:26.239Z,-1.40
2018-12-05T08:43:53.867Z,-1.30
2018-12-05T08:46:21.402Z,-1.20
2018-12-05T08:48:48.977Z,-1.10
2018-12-05T08:51:16.556Z,-1.00
2018-12-05T08:53:44.119Z,-0.90
2018-12-05T08:56:11.662Z,-0.70
2018-12-05T08:58:39.227Z,-0.70
2018-12-05T09:01:06.842Z,-0.50
2018-12-05T09:03:34.439Z,-0.40
2018-12-05T09:06:02.026Z,-0.40
2018-12-05T09:08:29.583Z,-0.40
2018-12-05T09:10:57.117Z,-0.30
2018-12-05T09:13:24.707Z,-0.30
2018-12-05T09:15:52.274Z,-0.30
2018-12-05T09:18:19.853Z,-0.30
2018-12-05T09:20:47.385Z,-0.30
2018-12-05T09:23:14.946Z,-0.20
2018-12-05T09:25:42.566Z,-0.20
2018-12-05T09:28:10.139Z,-0.20
2018-12-05T09:30:37.818Z,-0.10
2018-12-05T09:33:05.384Z,0.00
2018-12-05T09:35:32.934Z,0.10
2018-12-05T09:38:00.627Z,0.20
2018-12-05T09:40:28.198Z,0.30
2018-12-05T09:42:55.723Z,0.30
2018-12-05T09:45:23.271Z,0.40
2018-12-05T09:47:50.888Z,0.40
2018-12-05T09:50:18.483Z,0.40
2018-12-05T09:52:46.071Z,0.50
2018-12-05T09:55:13.658Z,0.60
2018-12-05T09:57:41.287Z,0.80
2018-12-05T10:00:09.014Z,1.00
2018-12-05T10:02:36.666Z,1.30
2018-12-05T10:05:05.771Z,1.30
2018-12-05T10:07:33.437Z,1.30
2018-12-05T10:10:00.991Z,1.40
2018-12-05T10:12:28.528Z,1.40
2018-12-05T10:14:56.081Z,1.30
2018-12-05T10:17:23.637Z,1.40
2018-12-05T10:19:51.315Z,1.40
2018-12-05T10:22:18.991Z,1.40
2018-12-05T10:24:46.550Z,1.50
2018-12-05T10:27:14.091Z,1.60
2018-12-05T10:29:41.633Z,1.70
2018-12-05T10:32:09.240Z,1.80
2018-12-05T10:34:36.847Z,2.00
2018-12-05T10:37:04.428Z,2.10
2018-12-05T10:39:31.991Z,2.10
2018-12-05T10:41:59.657Z,2.20
2018-12-05T10:44:27.235Z,2.30
2018-12-05T10:46:54.815Z,2.40
2018-12-05T10:49:22.378Z,2.40
2018-12-05T10:51:49.954Z,2.40
2018-12-05T10:54:18.176Z,2.40
2018-12-05T10:56:46.032Z,2.50
2018-12-05T10:59:13.823Z,2.50
2018-12-05T11:01:47.242Z,2.60
2018-12-05T11:04:18.718Z,2.60
2018-12-05T11:06:51.950Z,2.70
2018-12-05T11:09:25.119Z,2.80
2018-12-05T11:15:03.677Z,2.90
2018-12-05T11:17:36.894Z,2.90
2018-12-05T11:20:11.170Z,3.00
2018-12-05T11:22:44.421Z,3.00
2018-12-05T11:25:12.809Z,3.00
2018-12-05T11:27:40.355Z,2.90
2018-12-05T11:30:08.126Z,2.90
2018-12-05T11:32:35.706Z,2.90
2018-12-05T11:35:03.374Z,3.00
2018-12-05T11:37:31.015Z,3.00
2018-12-05T11:39:58.631Z,3.10
2018-12-05T11:42:26.154Z,3.20
2018-12-05T11:44:53.737Z,3.40
2018-12-05T11:47:21.338Z,3.60
2018-12-05T11:49:48.882Z,3.60
2018-12-05T11:52:16.455Z,3.60
2018-12-05T11:54:44.561Z,3.60
2018-12-05T11:57:12.147Z,3.50
2018-12-05T11:59:39.718Z,3.50
2018-12-05T12:02:07.282Z,3.40
2018-12-05T12:04:34.842Z,3.50
2018-12-05T12:07:02.430Z,3.50
2018-12-05T12:09:29.999Z,3.60
2018-12-05T12:11:57.647Z,3.60
2018-12-05T12:14:25.254Z,3.60
2018-12-05T12:16:52.807Z,3.60
2018-12-05T12:19:20.338Z,3.60
2018-12-05T12:21:47.972Z,3.60
2018-12-05T12:24:17.438Z,3.60
2018-12-05T12:26:44.991Z,3.70
2018-12-05T12:29:12.516Z,3.80
2018-12-05T12:31:40.071Z,3.90
2018-12-05T12:34:07.834Z,3.90
2018-12-05T12:36:35.431Z,3.90
2018-12-05T12:39:03.862Z,3.80
2018-12-05T12:41:31.691Z,3.80
2018-12-05T12:43:59.250Z,3.80
2018-12-05T12:46:26.871Z,4.00
2018-12-05T12:48:54.482Z,4.00
2018-12-05T12:51:23.613Z,3.90
2018-12-05T12:53:51.318Z,3.80
2018-12-05T12:56:18.998Z,3.80
2018-12-05T12:58:46.522Z,3.70
2018-12-05T13:01:14.432Z,3.80
2018-12-05T13:03:41.998Z,4.00
2018-12-05T13:06:09.547Z,4.00
2018-12-05T13:08:37.305Z,4.10
2018-12-05T13:11:04.893Z,4.10
2018-12-05T13:13:32.820Z,4.30
2018-12-05T13:16:00.486Z,4.20
2018-12-05T13:18:28.023Z,4.20
2018-12-05T13:20:56.061Z,4.20
2018-12-05T13:23:23.590Z,4.20
2018-12-05T13:25:51.146Z,4.10
2018-12-05T13:28:18.674Z,4.20
2018-12-05T13:30:46.222Z,4.10
2018-12-05T13:33:13.788Z,4.00
2018-12-05T13:35:41.343Z,4.10
2018-12-05T13:38:09.110Z,4.00
2018-12-05T13:40:36.729Z,3.90
2018-12-05T13:43:04.336Z,3.70
2018-12-05T13:45:32.022Z,3.80
2018-12-05T13:47:59.548Z,3.70
2018-12-05T13:50:27.098Z,3.70
2018-12-05T13:52:54.628Z,3.70
2018-12-05T13:55:22.174Z,3.60
2018-12-05T13:57:49.702Z,3.60
2018-12-05T14:00:18.490Z,3.60
2018-12-05T14:02:46.095Z,3.50
2018-12-05T14:05:13.702Z,3.30
2018-12-05T14:07:41.250Z,3.20
2018-12-05T14:10:08.866Z,3.10
2018-12-05T14:12:39.372Z,3.00
2018-12-05T14:15:07.428Z,2.90
2018-12-05T14:17:34.979Z,2.80
2018-12-05T14:20:02.554Z,2.80
2018-12-05T14:22:30.101Z,2.70
2018-12-05T14:24:57.634Z,2.60
2018-12-05T14:27:25.190Z,2.40
2018-12-05T14:29:52.722Z,2.30
2018-12-05T14:32:20.315Z,2.20
2018-12-05T14:34:49.260Z,2.10
2018-12-05T14:37:16.814Z,2.00
2018-12-05T14:39:44.342Z,1.90
2018-12-05T14:42:11.894Z,1.70
2018-12-05T14:44:39.462Z,1.70
2018-12-05T14:47:07.096Z,1.60
2018-12-05T14:49:34.622Z,1.50
2018-12-05T14:52:02.178Z,1.40
2018-12-05T14:54:29.722Z,1.40
2018-12-05T14:56:57.267Z,1.50
2018-12-05T14:59:24.805Z,1.60
2018-12-05T15:01:52.424Z,1.50
2018-12-05T15:04:19.959Z,1.20
2018-12-05T15:06:47.562Z,1.10
2018-12-05T15:09:15.086Z,1.00
2018-12-05T15:11:42.635Z,1.10
2018-12-05T15:14:10.171Z,1.00
2018-12-05T15:16:37.728Z,1.00
2018-12-05T15:19:05.354Z,0.90
2018-12-05T15:21:32.900Z,1.00
2018-12-05T15:24:00.434Z,0.90
2018-12-05T15:26:28.062Z,0.70
2018-12-05T15:28:55.589Z,0.70
2018-12-05T15:31:24.046Z,0.50
2018-12-05T15:33:51.574Z,0.40
2018-12-05T15:36:19.171Z,0.30
2018-12-05T15:38:46.705Z,0.20
2018-12-05T15:41:14.254Z,0.10
2018-12-05T15:43:41.788Z,0.20
2018-12-05T15:46:09.451Z,0.20
2018-12-05T15:48:36.975Z,0.10
2018-12-05T15:51:04.507Z,0.00
2018-12-05T15:53:32.063Z,-0.10
2018-12-05T15:55:59.638Z,-0.30
2018-12-05T15:58:27.189Z,-0.30
2018-12-05T16:00:54.719Z,-0.40
2018-12-05T16:03:22.265Z,-0.40
2018-12-05T16:05:49.795Z,-0.50
2018-12-05T16:08:17.349Z,-0.50
2018-12-05T16:10:44.882Z,-0.50
2018-12-05T16:13:12.509Z,-0.50
2018-12-05T16:15:40.086Z,-0.60
2018-12-05T16:18:07.639Z,-0.60
2018-12-05T16:20:35.174Z,-0.70
2018-12-05T16:23:02.734Z,-0.70
2018-12-05T16:25:30.318Z,-0.70
2018-12-05T16:27:57.875Z,-0.80
2018-12-05T16:30:25.501Z,-0.90
2018-12-05T16:32:53.055Z,-0.90
2018-12-05T16:35:20.626Z,-0.90
2018-12-05T16:37:48.271Z,-1.00
2018-12-05T16:40:15.802Z,-1.00
2018-12-05T16:42:43.350Z,-1.00
2018-12-05T16:45:10.927Z,-1.00
2018-12-05T16:47:38.481Z,-1.00
2018-12-05T16:50:06.427Z,-1.10
2018-12-05T16:52:33.985Z,-1.00
2018-12-05T16:55:01.571Z,-1.10
2018-12-05T16:57:29.934Z,-1.10
2018-12-05T16:59:57.940Z,-1.20
2018-12-05T17:02:25.498Z,-1.30
2018-12-05T17:04:53.069Z,-1.30
2018-12-05T17:07:20.635Z,-1.20
2018-12-05T17:09:48.171Z,-1.30
2018-12-05T17:12:15.729Z,-1.30
2018-12-05T17:14:43.543Z,-1.20
2018-12-05T17:17:11.198Z,-1.30
2018-12-05T17:19:38.783Z,-1.20
2018-12-05T17:22:06.371Z,-1.20
2018-12-05T17:24:33.910Z,-0.90
2018-12-05T17:27:01.460Z,-0.70
2018-12-05T17:29:28.990Z,-0.60
2018-12-05T17:31:56.638Z,-0.80
2018-12-05T17:34:24.195Z,-1.00
2018-12-05T17:36:51.787Z,-1.20
2018-12-05T17:39:19.427Z,-1.10
2018-12-05T17:41:47.053Z,-1.30
2018-12-05T17:44:14.733Z,-1.50
2018-12-05T17:46:42.379Z,-1.60
2018-12-05T17:49:09.935Z,-1.60
2018-12-05T17:51:37.470Z,-1.60
2018-12-05T17:54:05.030Z,-1.60
2018-12-05T17:56:32.563Z,-1.70
2018-12-05T17:59:00.119Z,-1.50
2018-12-05T18:01:27.656Z,-1.40
2018-12-05T18:03:55.215Z,-1.30
2018-12-05T18:06:22.750Z,-1.20
2018-12-05T18:08:50.346Z,-1.30
2018-12-05T18:11:17.886Z,-1.40
2018-12-05T18:13:45.444Z,-1.50
2018-12-05T18:16:13.071Z,-1.60
2018-12-05T18:18:40.621Z,-1.50
2018-12-05T18:21:08.187Z,-1.50
2018-12-05T18:23:35.831Z,-1.50
2018-12-05T18:26:03.408Z,-1.60
2018-12-05T18:28:30.975Z,-1.30
2018-12-05T18:30:58.522Z,-1.30
2018-12-05T18:33:26.079Z,-1.50
2018-12-05T18:35:53.616Z,-1.70
2018-12-05T18:38:21.207Z,-1.70
2018-12-05T18:40:48.791Z,-1.80
2018-12-05T18:43:16.350Z,-1.80
2018-12-05T18:45:44.200Z,-1.80
2018-12-05T18:48:11.879Z,-1.70
2018-12-05T18:50:39.422Z,-1.70
2018-12-05T18:53:06.970Z,-1.50
2018-12-05T18:55:34.498Z,-1.50
2018-12-05T18:58:02.114Z,-1.50
2018-12-05T19:00:29.641Z,-1.70
2018-12-05T19:02:57.209Z,-1.60
2018-12-05T19:05:24.747Z,-1.70
2018-12-05T19:07:52.305Z,-1.70
2018-12-05T19:10:19.882Z,-1.60
2018-12-05T19:12:47.439Z,-1.60
2018-12-05T19:15:14.973Z,-1.60
2018-12-05T19:17:42.514Z,-1.40
2018-12-05T19:20:10.159Z,-1.30
2018-12-05T19:22:37.696Z,-1.20
2018-12-05T19:25:05.537Z,-0.90
2018-12-05T19:27:33.166Z,-0.70
2018-12-05T19:30:00.730Z,-0.70
2018-12-05T19:32:28.368Z,-0.80
2018-12-05T19:34:55.923Z,-0.90
2018-12-05T19:37:23.503Z,-1.00
2018-12-05T19:39:51.068Z,-1.00
2018-12-05T19:42:18.613Z,-1.00
2018-12-05T19:44:46.167Z,-0.90
2018-12-05T19:47:13.708Z,-1.00
2018-12-05T19:49:41.263Z,-1.10
2018-12-05T19:52:08.842Z,-1.10
2018-12-05T19:54:36.398Z,-0.90
2018-12-05T19:57:04.019Z,-1.00
2018-12-05T19:59:31.674Z,-0.90
2018-12-05T20:01:59.582Z,-0.80
2018-12-05T20:04:27.480Z,-0.90
2018-12-05T20:06:55.033Z,-0.90
2018-12-05T20:09:22.642Z,-0.80
2018-12-05T20:11:50.184Z,-0.70
2018-12-05T20:14:23.395Z,-0.60
2018-12-05T20:16:50.946Z,-0.70
2018-12-05T20:19:18.501Z,-0.80
2018-12-05T20:21:46.038Z,-0.80
2018-12-05T20:24:13.679Z,-0.70
2018-12-05T20:26:41.258Z,-0.70
2018-12-05T20:29:08.819Z,-0.70
2018-12-05T20:31:36.362Z,-0.80
2018-12-05T20:34:04.007Z,-0.90
2018-12-05T20:36:31.544Z,-0.90
2018-12-05T20:38:59.094Z,-0.80
2018-12-05T20:41:31.516Z,-0.80
2018-12-05T20:43:56.289Z,-0.80
2018-12-05T20:46:23.822Z,-1.00
2018-12-05T20:48:51.387Z,-0.90
2018-12-05T20:51:18.974Z,-0.70
2018-12-05T20:53:46.532Z,-0.60
2018-12-05T20:56:14.105Z,-0.70
2018-12-05T20:58:41.735Z,-0.70
2018-12-05T21:01:09.318Z,-0.70
2018-12-05T21:03:37.082Z,-0.60
2018-12-05T21:06:04.746Z,-0.30
2018-12-05T21:08:32.397Z,0.00
2018-12-05T21:10:59.942Z,0.20
2018-12-05T21:13:27.478Z,0.40
2018-12-05T21:15:55.031Z,0.30
2018-12-05T21:18:22.559Z,0.30
2018-12-05T21:20:50.158Z,0.20
2018-12-05T21:23:17.682Z,0.20
2018-12-05T21:25:45.278Z,0.20
2018-12-05T21:28:12.822Z,0.10
2018-12-05T21:30:40.374Z,0.10
2018-12-05T21:33:07.918Z,0.10
2018-12-05T21:35:35.525Z,0.30
2018-12-05T21:38:03.059Z,0.40
2018-12-05T21:40:30.610Z,0.30
2018-12-05T21:42:58.142Z,0.40
2018-12-05T21:45:25.783Z,0.40
2018-12-05T21:47:53.315Z,0.60
2018-12-05T21:50:20.866Z,0.40
2018-12-05T21:52:48.407Z,0.50
2018-12-05T21:55:15.963Z,0.70
2018-12-05T21:57:43.494Z,0.60
2018-12-05T22:00:11.127Z,0.50
2018-12-05T22:02:38.694Z,0.50
2018-12-05T22:05:06.333Z,0.40
2018-12-05T22:07:33.943Z,0.40
2018-12-05T22:10:01.539Z,0.50
2018-12-05T22:12:29.106Z,0.60
2018-12-05T22:14:56.702Z,0.50
2018-12-05T22:17:24.274Z,0.40
2018-12-05T22:19:51.826Z,0.40
2018-12-05T22:22:19.403Z,0.40
2018-12-05T22:24:46.954Z,0.50
2018-12-05T22:27:14.479Z,0.40
2018-12-05T22:29:42.036Z,0.50
2018-12-05T22:32:09.581Z,0.50
2018-12-05T22:34:37.126Z,0.60
2018-12-05T22:37:04.654Z,0.70
2018-12-05T22:39:32.241Z,0.70
2018-12-05T22:41:59.810Z,0.80
2018-12-05T22:44:27.354Z,0.80
2018-12-05T22:46:54.886Z,1.00
2018-12-05T22:49:22.458Z,1.10
2018-12-05T22:51:50.043Z,1.10
2018-12-05T22:54:17.627Z,1.30
2018-12-05T22:56:52.945Z,1.30
2018-12-05T22:59:20.466Z,1.20
2018-12-05T23:01:48.055Z,1.10
2018-12-05T23:04:15.591Z,1.10
2018-12-05T23:06:43.141Z,1.10
2018-12-05T23:09:10.666Z,1.10
2018-12-05T23:11:38.262Z,1.00
2018-12-05T23:14:05.802Z,1.00
2018-12-05T23:16:33.395Z,0.90
2018-12-05T23:19:00.928Z,1.20
2018-12-05T23:21:28.492Z,1.20
2018-12-05T23:23:56.018Z,1.10
2018-12-05T23:26:23.611Z,1.20
2018-12-05T23:28:51.195Z,1.40
2018-12-05T23:31:18.767Z,1.30
2018-12-05T23:33:46.294Z,1.50
2018-12-05T23:36:13.846Z,1.50
2018-12-05T23:38:41.383Z,2.00
2018-12-05T23:41:08.930Z,2.10
2018-12-05T23:43:36.498Z,2.10
2018-12-05T23:46:04.092Z,2.00
2018-12-05T23:48:31.626Z,2.10
2018-12-05T23:50:59.173Z,2.00
2018-12-05T23:53:26.702Z,2.00
2018-12-05T23:55:54.301Z,2.20
2018-12-05T23:58:21.835Z,2.20
